createdAt,value
2019-03-13T00:04:58.720Z,2.53
2019-03-13T00:10:01.443Z,0.90
2019-03-13T00:15:05.034Z,3.33
2019-03-13T00:20:09.256Z,1.37
2019-03-13T00:25:11.604Z,3.43
2019-03-13T00:30:14.448Z,1.23
2019-03-13T00:35:17.182Z,1.10
2019-03-13T00:40:19.869Z,1.20
2019-03-13T00:45:22.561Z,4.30
2019-03-13T00:50:27.607Z,4.07
2019-03-13T00:55:30.331Z,2.23
2019-03-13T01:00:51.967Z,1.80
2019-03-13T01:06:00.870Z,0.77
2019-03-13T01:11:03.635Z,1.33
2019-03-13T01:16:06.442Z,0.90
2019-03-13T01:21:09.269Z,1.17
2019-03-13T01:26:13.201Z,1.07
2019-03-13T01:31:44.540Z,1.17
2019-03-13T01:36:47.250Z,0.80
2019-03-13T01:41:49.940Z,3.10
2019-03-13T01:46:52.774Z,1.17
2019-03-13T01:51:55.561Z,0.97
2019-03-13T01:56:58.426Z,0.63
2019-03-13T02:02:01.092Z,0.97
2019-03-13T02:07:03.800Z,1.03
2019-03-13T02:12:06.568Z,0.80
2019-03-13T02:17:09.324Z,0.80
2019-03-13T02:22:12.004Z,0.90
2019-03-13T02:27:14.735Z,0.97
2019-03-13T02:32:17.391Z,0.80
2019-03-13T02:37:20.124Z,0.83
2019-03-13T02:42:22.779Z,0.73
2019-03-13T02:47:25.428Z,0.80
2019-03-13T02:52:28.142Z,0.70
2019-03-13T02:57:30.810Z,0.60
2019-03-13T03:02:40.967Z,0.57
2019-03-13T03:07:49.618Z,1.50
2019-03-13T03:12:52.385Z,0.67
2019-03-13T03:17:55.176Z,0.50
2019-03-13T03:22:57.972Z,2.00
2019-03-13T03:28:00.644Z,0.90
2019-03-13T03:33:03.371Z,0.63
2019-03-13T03:38:06.191Z,0.60
2019-03-13T03:43:08.989Z,1.03
2019-03-13T03:48:11.688Z,0.70
2019-03-13T03:53:14.489Z,0.63
2019-03-13T03:58:17.182Z,0.83
2019-03-13T04:03:19.873Z,0.70
2019-03-13T04:08:22.615Z,1.00
2019-03-13T04:13:25.333Z,4.37
2019-03-13T04:18:28.187Z,0.80
2019-03-13T04:23:30.960Z,1.37
2019-03-13T04:28:33.645Z,1.07
2019-03-13T04:33:36.444Z,1.53
2019-03-13T04:38:39.243Z,2.10
2019-03-13T04:43:44.831Z,2.40
2019-03-13T04:48:47.588Z,10.03
2019-03-13T04:53:50.362Z,6.77
2019-03-13T04:58:53.066Z,9.07
2019-03-13T05:03:55.789Z,3.43
2019-03-13T05:09:01.434Z,6.43
2019-03-13T05:14:06.113Z,3.30
2019-03-13T05:19:08.775Z,3.37
2019-03-13T05:24:11.427Z,2.43
2019-03-13T05:29:14.179Z,7.20
2019-03-13T05:34:17.034Z,4.77
2019-03-13T05:39:19.853Z,5.33
2019-03-13T05:44:22.441Z,8.40
2019-03-13T05:49:25.214Z,6.37
2019-03-13T05:54:28.003Z,1.50
2019-03-13T05:59:30.718Z,4.40
2019-03-13T06:04:33.424Z,11.23
2019-03-13T06:09:36.122Z,6.73
2019-03-13T06:14:38.787Z,7.83
2019-03-13T06:19:41.649Z,9.73
2019-03-13T06:24:44.280Z,20.07
2019-03-13T06:29:46.959Z,6.23
2019-03-13T06:34:49.661Z,16.57
2019-03-13T06:39:53.223Z,11.37
2019-03-13T06:44:55.922Z,14.87
2019-03-13T06:49:58.608Z,24.67
2019-03-13T06:55:01.585Z,12.77
2019-03-13T07:00:24.183Z,22.80
2019-03-13T07:05:51.870Z,25.67
2019-03-13T07:11:13.957Z,24.37
2019-03-13T07:16:42.166Z,19.60
2019-03-13T07:22:07.233Z,26.37
2019-03-13T07:27:29.429Z,25.30
2019-03-13T07:33:00.970Z,21.87
2019-03-13T07:38:32.365Z,25.77
2019-03-13T07:44:03.643Z,28.30
2019-03-13T07:49:16.584Z,25.10
2019-03-13T07:54:42.137Z,35.40
2019-03-13T08:00:03.272Z,25.13
2019-03-13T08:05:23.056Z,21.57
2019-03-13T08:10:45.279Z,28.93
2019-03-13T08:15:55.747Z,24.50
2019-03-13T08:21:11.250Z,34.67
2019-03-13T08:26:53.029Z,40.00
2019-03-13T08:32:09.966Z,28.00
2019-03-13T08:37:42.089Z,21.80
2019-03-13T08:43:04.603Z,20.97
2019-03-13T08:48:32.778Z,29.17
2019-03-13T08:53:56.043Z,40.17
2019-03-13T08:59:23.734Z,50.83
2019-03-13T09:04:35.869Z,26.23
2019-03-13T09:10:01.012Z,30.07
2019-03-13T09:15:24.324Z,21.90
2019-03-13T09:20:36.663Z,26.17
2019-03-13T09:26:08.118Z,27.23
2019-03-13T09:31:28.812Z,24.87
2019-03-13T09:36:42.679Z,25.50
2019-03-13T09:41:57.755Z,25.07
2019-03-13T09:47:35.005Z,20.23
2019-03-13T09:53:06.243Z,21.63
2019-03-13T09:58:31.521Z,14.43
2019-03-13T10:03:40.426Z,21.57
2019-03-13T10:09:21.013Z,24.80
2019-03-13T10:14:43.177Z,20.17
2019-03-13T10:19:56.023Z,11.87
2019-03-13T10:25:21.399Z,24.73
2019-03-13T10:30:52.661Z,26.40
2019-03-13T10:36:17.548Z,23.70
2019-03-13T10:41:29.327Z,25.83
2019-03-13T10:46:38.477Z,26.10
2019-03-13T10:57:49.699Z,24.00
2019-03-13T11:03:17.793Z,26.27
2019-03-13T11:08:41.771Z,35.90
2019-03-13T11:14:15.020Z,21.63
2019-03-13T11:19:26.884Z,17.67
2019-03-13T11:24:34.606Z,18.00
2019-03-13T11:29:59.851Z,15.83
2019-03-13T11:35:21.127Z,24.10
2019-03-13T11:40:50.563Z,22.97
2019-03-13T11:46:17.889Z,15.73
2019-03-13T11:51:48.835Z,14.77
2019-03-13T11:57:13.209Z,21.87
2019-03-13T12:02:35.369Z,18.47
2019-03-13T12:08:03.678Z,20.23
2019-03-13T12:13:20.849Z,26.43
2019-03-13T12:18:35.046Z,20.30
2019-03-13T12:24:00.969Z,10.17
2019-03-13T12:29:22.488Z,15.63
2019-03-13T12:34:31.600Z,26.03
2019-03-13T12:39:52.563Z,14.47
2019-03-13T12:45:17.546Z,17.23
2019-03-13T12:50:39.733Z,22.37
2019-03-13T12:56:08.136Z,23.37
2019-03-13T13:01:28.888Z,19.53
2019-03-13T13:06:47.670Z,17.23
2019-03-13T13:12:07.993Z,25.47
2019-03-13T13:17:22.443Z,26.03
2019-03-13T13:22:25.129Z,23.33
2019-03-13T13:27:27.936Z,22.23
2019-03-13T13:32:30.618Z,25.67
2019-03-13T13:37:33.328Z,26.67
2019-03-13T13:42:36.007Z,14.67
2019-03-13T13:47:38.689Z,13.00
2019-03-13T13:52:41.408Z,21.83
2019-03-13T13:57:44.018Z,15.13
2019-03-13T14:02:46.700Z,13.87
2019-03-13T14:07:49.386Z,13.80
2019-03-13T14:12:51.988Z,20.20
2019-03-13T14:17:54.817Z,16.53
2019-03-13T14:22:57.411Z,18.63
2019-03-13T14:28:00.161Z,15.70
2019-03-13T14:33:02.942Z,17.87
2019-03-13T14:38:05.759Z,19.53
2019-03-13T14:43:08.524Z,12.13
2019-03-13T14:48:11.183Z,15.67
2019-03-13T14:53:13.900Z,14.63
2019-03-13T14:58:16.654Z,24.03
2019-03-13T15:03:19.452Z,22.00
2019-03-13T15:08:27.316Z,21.37
2019-03-13T15:13:30.183Z,19.87
2019-03-13T15:18:32.925Z,12.73
2019-03-13T15:23:35.788Z,14.60
2019-03-13T15:28:39.325Z,12.87
2019-03-13T15:33:42.030Z,16.23
2019-03-13T15:38:44.831Z,18.40
2019-03-13T15:43:47.667Z,19.20
2019-03-13T15:48:50.427Z,12.50
2019-03-13T15:53:53.064Z,13.03
2019-03-13T15:58:55.810Z,18.53
2019-03-13T16:04:00.897Z,16.47
2019-03-13T16:09:06.056Z,8.93
2019-03-13T16:14:10.651Z,11.57
2019-03-13T16:19:13.404Z,12.50
2019-03-13T16:24:16.555Z,12.50
2019-03-13T16:29:19.446Z,10.90
2019-03-13T16:34:22.139Z,8.37
2019-03-13T16:39:24.775Z,13.67
2019-03-13T16:44:27.384Z,10.37
2019-03-13T16:49:30.058Z,10.03
2019-03-13T16:54:32.761Z,10.83
2019-03-13T16:59:38.728Z,14.00
2019-03-13T17:04:41.523Z,9.57
2019-03-13T17:09:44.172Z,9.83
2019-03-13T17:14:47.794Z,8.97
2019-03-13T17:19:52.210Z,6.17
2019-03-13T17:24:54.891Z,5.67
2019-03-13T17:29:57.660Z,6.80
2019-03-13T17:35:00.488Z,13.37
2019-03-13T17:40:04.155Z,9.80
2019-03-13T17:45:10.416Z,15.07
2019-03-13T17:50:14.324Z,14.23
2019-03-13T17:55:17.233Z,13.73
2019-03-13T18:00:22.167Z,19.23
2019-03-13T18:05:24.761Z,15.90
2019-03-13T18:10:27.618Z,14.97
2019-03-13T18:15:30.427Z,15.43
2019-03-13T18:20:33.315Z,16.00
2019-03-13T18:25:36.040Z,16.80
2019-03-13T18:30:38.825Z,13.83
2019-03-13T18:35:41.455Z,22.40
2019-03-13T18:40:44.191Z,17.33
2019-03-13T18:45:46.965Z,21.67
2019-03-13T18:50:49.527Z,22.27
2019-03-13T18:55:52.224Z,25.13
2019-03-13T19:00:57.959Z,28.03
2019-03-13T19:05:59.495Z,23.97
2019-03-13T19:11:02.269Z,27.03
2019-03-13T19:16:04.988Z,24.67
2019-03-13T19:21:07.725Z,25.63
2019-03-13T19:26:11.583Z,29.03
2019-03-13T19:31:14.293Z,28.33
2019-03-13T19:36:17.046Z,22.10
2019-03-13T19:41:19.811Z,25.40
2019-03-13T19:46:22.659Z,28.17
2019-03-13T19:51:25.619Z,22.10
2019-03-13T19:56:28.458Z,22.63
2019-03-13T20:01:31.819Z,33.00
2019-03-13T20:06:42.181Z,42.43
2019-03-13T20:11:40.538Z,35.43
2019-03-13T20:16:46.489Z,27.83
2019-03-13T20:21:49.800Z,29.03
2019-03-13T20:26:53.208Z,30.17
2019-03-13T20:31:56.813Z,25.43
2019-03-13T20:37:09.960Z,35.97
2019-03-13T20:42:19.416Z,30.50
2019-03-13T20:47:24.298Z,24.57
2019-03-13T20:52:27.177Z,30.00
2019-03-13T20:57:30.095Z,28.63
2019-03-13T21:02:33.794Z,23.80
2019-03-13T21:07:36.586Z,37.83
2019-03-13T21:12:39.451Z,31.77
2019-03-13T21:17:42.328Z,25.73
2019-03-13T21:22:46.680Z,28.47
2019-03-13T21:27:49.452Z,12.37
2019-03-13T21:32:52.135Z,24.83
2019-03-13T21:37:54.771Z,32.90
2019-03-13T21:42:57.473Z,26.13
2019-03-13T21:48:44.198Z,38.53
2019-03-13T21:53:46.875Z,36.80
2019-03-13T21:58:49.574Z,28.40
2019-03-13T22:03:52.281Z,35.30
2019-03-13T22:08:54.932Z,28.20
2019-03-13T22:13:57.636Z,33.17
2019-03-13T22:19:00.382Z,31.47
2019-03-13T22:24:03.164Z,37.67
2019-03-13T22:29:05.932Z,30.27
2019-03-13T22:34:09.333Z,35.37
2019-03-13T22:39:11.980Z,33.83
2019-03-13T22:44:14.735Z,34.23
2019-03-13T22:49:17.381Z,38.23
2019-03-13T22:54:20.293Z,30.60
2019-03-13T22:59:23.116Z,24.07
2019-03-13T23:04:25.900Z,26.20
2019-03-13T23:09:28.468Z,17.73
2019-03-13T23:14:31.187Z,22.83
2019-03-13T23:19:33.911Z,19.97
2019-03-13T23:24:38.068Z,20.17
2019-03-13T23:29:40.946Z,26.10
2019-03-13T23:34:43.601Z,20.20
2019-03-13T23:39:46.338Z,29.83
2019-03-13T23:44:49.012Z,18.37
2019-03-13T23:49:51.702Z,20.17
2019-03-13T23:54:54.439Z,36.20
2019-03-13T23:59:57.210Z,18.30
